createdAt,value
2019-04-16T00:01:56.597Z,42.90
2019-04-16T00:04:26.821Z,43.00
2019-04-16T00:07:13.534Z,43.00
2019-04-16T00:09:46.609Z,43.00
2019-04-16T00:12:23.765Z,43.90
2019-04-16T00:14:54.222Z,43.90
2019-04-16T00:17:22.878Z,44.00
2019-04-16T00:19:51.287Z,43.90
2019-04-16T00:22:24.862Z,44.00
2019-04-16T00:24:53.845Z,44.00
2019-04-16T00:27:22.209Z,44.10
2019-04-16T00:29:50.806Z,44.10
2019-04-16T00:32:20.925Z,44.20
2019-04-16T00:34:49.260Z,44.10
2019-04-16T00:37:20.402Z,44.20
2019-04-16T00:39:47.715Z,44.30
2019-04-16T00:42:16.415Z,44.40
2019-04-16T00:44:44.734Z,44.30
2019-04-16T00:47:12.969Z,44.30
2019-04-16T00:49:41.272Z,44.40
2019-04-16T00:52:09.722Z,44.40
2019-04-16T00:54:39.355Z,44.50
2019-04-16T00:57:08.269Z,44.50
2019-04-16T00:59:36.537Z,44.60
2019-04-16T01:02:05.113Z,44.60
2019-04-16T01:04:33.439Z,44.60
2019-04-16T01:07:01.977Z,44.70
2019-04-16T01:09:30.294Z,44.60
2019-04-16T01:11:58.663Z,44.70
2019-04-16T01:14:27.465Z,44.80
2019-04-16T01:16:56.398Z,44.90
2019-04-16T01:19:24.648Z,44.80
2019-04-16T01:21:53.407Z,44.90
2019-04-16T01:24:21.839Z,45.20
2019-04-16T01:26:55.488Z,45.00
2019-04-16T01:29:23.023Z,45.40
2019-04-16T01:32:11.663Z,45.10
2019-04-16T01:34:57.932Z,45.20
2019-04-16T01:37:43.126Z,45.10
2019-04-16T01:40:18.406Z,45.30
2019-04-16T01:42:44.461Z,45.20
2019-04-16T01:45:12.748Z,45.30
2019-04-16T01:47:41.221Z,45.40
2019-04-16T01:50:13.001Z,45.40
2019-04-16T01:52:39.863Z,45.50
2019-04-16T01:55:08.210Z,45.70
2019-04-16T01:57:36.648Z,45.60
2019-04-16T02:00:08.457Z,45.70
2019-04-16T02:02:37.482Z,45.70
2019-04-16T02:05:07.375Z,45.90
2019-04-16T02:07:35.999Z,45.90
2019-04-16T02:10:07.326Z,45.90
2019-04-16T02:12:35.602Z,46.00
2019-04-16T02:15:08.822Z,46.10
2019-04-16T02:17:38.295Z,46.10
2019-04-16T02:20:07.591Z,46.20
2019-04-16T02:22:37.167Z,46.20
2019-04-16T02:25:05.842Z,46.30
2019-04-16T02:27:34.494Z,46.30
2019-04-16T02:30:05.134Z,46.40
2019-04-16T02:32:33.844Z,46.50
2019-04-16T02:35:02.678Z,46.50
2019-04-16T02:37:35.507Z,46.50
2019-04-16T02:40:01.191Z,46.60
2019-04-16T02:42:32.139Z,46.70
2019-04-16T02:45:00.780Z,46.70
2019-04-16T02:47:29.024Z,46.70
2019-04-16T02:49:58.390Z,46.80
2019-04-16T02:52:28.311Z,46.80
2019-04-16T02:55:13.292Z,46.90
2019-04-16T02:58:01.243Z,46.90
2019-04-16T03:00:31.399Z,47.00
2019-04-16T03:03:01.539Z,46.90
2019-04-16T03:05:34.317Z,47.00
2019-04-16T03:08:05.025Z,47.10
2019-04-16T03:10:33.906Z,47.10
2019-04-16T03:13:02.255Z,47.20
2019-04-16T03:15:50.929Z,47.10
2019-04-16T03:18:21.132Z,47.10
2019-04-16T03:20:49.398Z,47.10
2019-04-16T03:23:17.807Z,47.20
2019-04-16T03:25:46.280Z,47.30
2019-04-16T03:28:14.685Z,47.30
2019-04-16T03:30:43.297Z,47.40
2019-04-16T03:33:14.661Z,47.40
2019-04-16T03:35:41.947Z,47.50
2019-04-16T03:38:10.452Z,47.50
2019-04-16T03:40:38.966Z,47.60
2019-04-16T03:43:07.370Z,47.60
2019-04-16T03:45:37.509Z,47.70
2019-04-16T03:48:05.756Z,47.70
2019-04-16T03:50:34.300Z,47.70
2019-04-16T03:53:02.861Z,47.80
2019-04-16T03:55:31.412Z,47.80
2019-04-16T03:58:05.152Z,47.80
2019-04-16T04:00:30.433Z,47.90
2019-04-16T04:02:58.675Z,47.90
2019-04-16T04:05:26.938Z,47.90
2019-04-16T04:07:55.595Z,48.00
2019-04-16T04:10:30.673Z,47.90
2019-04-16T04:12:56.061Z,47.90
2019-04-16T04:15:26.323Z,48.00
2019-04-16T04:17:54.752Z,47.90
2019-04-16T04:20:23.297Z,48.00
2019-04-16T04:22:51.622Z,48.00
2019-04-16T04:25:21.642Z,48.10
2019-04-16T04:27:50.075Z,48.10
2019-04-16T04:30:20.399Z,48.20
2019-04-16T04:32:49.026Z,48.20
2019-04-16T04:35:21.032Z,48.20
2019-04-16T04:37:47.851Z,48.30
2019-04-16T04:40:17.561Z,48.30
2019-04-16T04:42:50.596Z,48.30
2019-04-16T04:45:19.195Z,48.30
2019-04-16T04:47:51.016Z,48.40
2019-04-16T04:50:17.658Z,48.50
2019-04-16T04:52:46.833Z,48.60
2019-04-16T04:55:17.084Z,48.60
2019-04-16T04:57:45.398Z,49.30
2019-04-16T05:00:13.756Z,48.60
2019-04-16T05:02:43.760Z,48.60
2019-04-16T05:05:24.446Z,48.60
2019-04-16T05:07:49.501Z,48.70
2019-04-16T05:10:17.892Z,48.70
2019-04-16T05:12:46.173Z,48.80
2019-04-16T05:15:14.749Z,48.80
2019-04-16T05:17:43.035Z,48.90
2019-04-16T05:20:14.920Z,48.90
2019-04-16T05:22:41.316Z,49.00
2019-04-16T05:25:10.195Z,49.40
2019-04-16T05:27:41.079Z,49.00
2019-04-16T05:30:09.434Z,49.00
2019-04-16T05:32:37.702Z,49.20
2019-04-16T05:35:10.321Z,49.20
2019-04-16T05:37:36.831Z,49.20
2019-04-16T05:40:08.415Z,49.30
2019-04-16T05:42:36.651Z,49.20
2019-04-16T05:45:06.528Z,49.20
2019-04-16T05:47:34.865Z,49.30
2019-04-16T05:50:03.184Z,49.30
2019-04-16T05:52:35.908Z,49.40
2019-04-16T05:55:06.977Z,49.30
2019-04-16T05:57:41.004Z,49.40
2019-04-16T06:00:10.914Z,49.40
2019-04-16T06:02:43.569Z,49.50
2019-04-16T06:05:12.512Z,49.50
2019-04-16T06:07:41.274Z,49.50
2019-04-16T06:10:09.803Z,49.50
2019-04-16T06:12:40.059Z,49.60
2019-04-16T06:15:22.261Z,49.50
2019-04-16T06:17:51.543Z,50.00
2019-04-16T06:20:21.779Z,49.60
2019-04-16T06:22:51.891Z,49.60
2019-04-16T06:25:28.473Z,49.50
2019-04-16T06:28:16.409Z,49.50
2019-04-16T06:30:52.214Z,49.30
2019-04-16T06:33:31.483Z,49.30
2019-04-16T06:36:06.303Z,49.20
2019-04-16T06:38:48.361Z,49.90
2019-04-16T06:41:18.385Z,49.20
2019-04-16T06:43:51.299Z,49.20
2019-04-16T06:46:30.590Z,49.20
2019-04-16T06:49:00.614Z,49.20
2019-04-16T06:51:33.416Z,49.10
2019-04-16T06:54:09.399Z,49.00
2019-04-16T06:56:54.581Z,49.70
2019-04-16T06:59:30.477Z,49.00
2019-04-16T07:02:15.136Z,49.00
2019-04-16T07:04:47.810Z,49.00
2019-04-16T07:07:18.248Z,49.00
2019-04-16T07:09:56.738Z,48.90
2019-04-16T07:12:23.845Z,48.80
2019-04-16T07:14:52.246Z,48.80
2019-04-16T07:17:20.535Z,48.80
2019-04-16T07:19:48.818Z,48.80
2019-04-16T07:22:20.718Z,48.80
2019-04-16T07:24:48.762Z,49.00
2019-04-16T07:27:20.212Z,48.60
2019-04-16T07:29:51.814Z,49.20
2019-04-16T07:32:31.097Z,48.80
2019-04-16T07:35:00.984Z,47.50
2019-04-16T07:37:46.412Z,46.10
2019-04-16T07:40:32.854Z,44.60
2019-04-16T07:43:19.007Z,42.70
2019-04-16T07:46:05.514Z,41.70
2019-04-16T07:48:35.885Z,40.90
2019-04-16T07:51:12.723Z,39.80
2019-04-16T07:53:53.546Z,39.30
2019-04-16T07:56:23.585Z,38.90
2019-04-16T07:58:51.897Z,38.70
2019-04-16T08:01:20.483Z,38.50
2019-04-16T08:03:48.737Z,38.00
2019-04-16T08:06:17.186Z,37.80
2019-04-16T08:08:46.438Z,38.00
2019-04-16T08:11:18.075Z,37.90
2019-04-16T08:13:47.113Z,37.70
2019-04-16T08:16:15.378Z,37.90
2019-04-16T08:18:50.319Z,37.30
2019-04-16T08:21:22.019Z,37.50
2019-04-16T08:23:52.902Z,37.60
2019-04-16T08:26:20.765Z,37.80
2019-04-16T08:28:48.997Z,37.80
2019-04-16T08:31:20.647Z,38.10
2019-04-16T08:33:48.890Z,37.90
2019-04-16T08:36:17.147Z,37.90
2019-04-16T08:38:45.521Z,38.00
2019-04-16T08:41:19.959Z,38.10
2019-04-16T08:43:44.039Z,38.20
2019-04-16T08:46:12.469Z,38.20
2019-04-16T08:48:40.723Z,37.90
2019-04-16T08:51:09.132Z,37.80
2019-04-16T08:53:37.523Z,36.00
2019-04-16T08:56:05.907Z,36.10
2019-04-16T08:58:35.635Z,37.10
2019-04-16T09:01:06.457Z,37.30
2019-04-16T09:03:34.862Z,37.70
2019-04-16T09:06:04.462Z,37.50
2019-04-16T09:08:53.178Z,37.80
2019-04-16T09:11:36.042Z,37.90
2019-04-16T09:14:07.615Z,37.50
2019-04-16T09:16:37.567Z,36.90
2019-04-16T09:19:19.782Z,35.90
2019-04-16T09:21:48.013Z,36.50
2019-04-16T09:24:40.491Z,36.50
2019-04-16T09:27:12.585Z,36.40
2019-04-16T09:29:45.691Z,36.00
2019-04-16T09:32:18.779Z,36.30
2019-04-16T09:35:09.661Z,36.10
2019-04-16T09:37:40.304Z,35.90
2019-04-16T09:40:22.068Z,36.20
2019-04-16T09:42:50.869Z,35.90
2019-04-16T09:45:19.378Z,35.30
2019-04-16T09:47:49.270Z,35.90
2019-04-16T09:50:17.518Z,35.90
2019-04-16T09:52:45.866Z,35.90
2019-04-16T09:55:15.182Z,36.00
2019-04-16T09:57:44.302Z,35.40
2019-04-16T10:00:16.830Z,35.20
2019-04-16T10:02:44.562Z,35.10
2019-04-16T10:05:13.011Z,35.10
2019-04-16T10:07:42.767Z,35.00
2019-04-16T10:10:11.300Z,34.60
2019-04-16T10:12:41.401Z,34.30
2019-04-16T10:15:09.786Z,34.50
2019-04-16T10:17:38.524Z,34.70
2019-04-16T10:20:06.878Z,34.10
2019-04-16T10:22:35.452Z,34.00
2019-04-16T10:25:14.722Z,33.90
2019-04-16T10:27:44.985Z,34.30
2019-04-16T10:30:17.741Z,33.60
2019-04-16T10:32:46.544Z,33.70
2019-04-16T10:35:15.306Z,33.70
2019-04-16T10:37:43.687Z,34.40
2019-04-16T10:40:28.724Z,33.70
2019-04-16T10:43:15.300Z,33.40
2019-04-16T10:45:48.434Z,33.30
2019-04-16T10:48:30.682Z,33.00
2019-04-16T10:51:00.753Z,32.50
2019-04-16T10:53:49.087Z,32.60
2019-04-16T10:56:27.889Z,32.00
2019-04-16T10:59:13.453Z,31.30
2019-04-16T11:01:45.094Z,31.90
2019-04-16T11:04:15.287Z,32.50
2019-04-16T11:06:47.943Z,32.00
2019-04-16T11:09:16.645Z,30.60
2019-04-16T11:11:46.733Z,30.50
2019-04-16T11:14:15.306Z,30.90
2019-04-16T11:16:45.498Z,30.80
2019-04-16T11:19:15.204Z,30.00
2019-04-16T11:21:43.560Z,29.80
2019-04-16T11:24:11.891Z,29.80
2019-04-16T11:26:44.402Z,29.40
2019-04-16T11:29:16.018Z,29.00
2019-04-16T11:31:44.605Z,29.10
2019-04-16T11:34:13.421Z,29.80
2019-04-16T11:36:42.015Z,30.30
2019-04-16T11:39:11.191Z,30.30
2019-04-16T11:41:39.499Z,30.20
2019-04-16T11:44:15.708Z,29.30
2019-04-16T11:46:37.987Z,29.20
2019-04-16T11:49:06.347Z,29.80
2019-04-16T11:51:34.711Z,29.90
2019-04-16T11:54:03.122Z,30.00
2019-04-16T11:56:31.501Z,29.70
2019-04-16T11:58:59.779Z,29.40
2019-04-16T12:01:46.261Z,29.80
2019-04-16T12:04:28.470Z,29.60
2019-04-16T12:07:16.812Z,29.60
2019-04-16T12:09:56.426Z,29.50
2019-04-16T12:12:29.427Z,29.40
2019-04-16T12:14:59.382Z,29.80
2019-04-16T12:17:29.361Z,29.50
2019-04-16T12:20:05.692Z,29.10
2019-04-16T12:22:52.129Z,29.10
2019-04-16T12:25:38.637Z,29.10
2019-04-16T12:28:12.009Z,28.60
2019-04-16T12:30:44.091Z,28.30
2019-04-16T12:33:14.572Z,28.40
2019-04-16T12:35:56.940Z,28.40
2019-04-16T12:38:27.029Z,28.50
2019-04-16T12:40:56.959Z,28.90
2019-04-16T12:43:36.917Z,29.00
2019-04-16T12:46:10.307Z,28.90
2019-04-16T12:48:40.883Z,28.90
2019-04-16T12:51:13.550Z,29.00
2019-04-16T12:53:43.566Z,29.00
2019-04-16T12:56:30.389Z,29.10
2019-04-16T12:59:06.543Z,29.20
2019-04-16T13:01:39.233Z,28.90
2019-04-16T13:04:09.385Z,28.80
2019-04-16T13:06:42.896Z,28.90
2019-04-16T13:09:29.074Z,29.20
2019-04-16T13:11:59.140Z,29.10
2019-04-16T13:14:32.158Z,28.80
2019-04-16T13:17:19.467Z,28.80
2019-04-16T13:19:50.095Z,28.70
2019-04-16T13:22:36.063Z,28.70
2019-04-16T13:25:23.692Z,29.00
2019-04-16T13:27:53.083Z,28.80
2019-04-16T13:30:21.583Z,28.50
2019-04-16T13:32:50.025Z,28.90
2019-04-16T13:35:18.303Z,28.80
2019-04-16T13:37:46.852Z,28.20
2019-04-16T13:40:17.438Z,28.00
2019-04-16T13:42:45.891Z,28.20
2019-04-16T13:45:32.979Z,28.40
2019-04-16T13:48:15.465Z,28.60
2019-04-16T13:50:40.732Z,28.40
2019-04-16T13:53:08.639Z,28.40
2019-04-16T13:55:41.602Z,28.30
2019-04-16T13:58:20.937Z,28.30
2019-04-16T14:00:51.469Z,28.00
2019-04-16T14:03:23.971Z,27.70
2019-04-16T14:05:51.366Z,27.90
2019-04-16T14:08:19.942Z,28.40
2019-04-16T14:10:48.816Z,28.90
2019-04-16T14:13:17.296Z,28.50
2019-04-16T14:15:45.597Z,28.40
2019-04-16T14:18:14.011Z,28.40
2019-04-16T14:20:42.536Z,28.50
2019-04-16T14:23:10.993Z,28.40
2019-04-16T14:25:39.581Z,28.40
2019-04-16T14:28:08.472Z,27.80
2019-04-16T14:30:39.592Z,28.10
2019-04-16T14:33:08.558Z,28.40
2019-04-16T14:35:40.030Z,28.50
2019-04-16T14:38:07.086Z,28.40
2019-04-16T14:40:35.322Z,28.00
2019-04-16T14:43:04.605Z,27.60
2019-04-16T14:45:53.638Z,27.90
2019-04-16T14:48:08.905Z,27.80
2019-04-16T14:50:37.159Z,27.90
2019-04-16T14:53:05.831Z,27.50
2019-04-16T14:55:35.773Z,27.50
2019-04-16T14:58:16.015Z,27.60
2019-04-16T15:00:47.831Z,27.70
2019-04-16T15:03:27.666Z,27.60
2019-04-16T15:06:03.343Z,27.80
2019-04-16T15:08:33.269Z,27.90
2019-04-16T15:11:19.281Z,27.90
2019-04-16T15:13:49.318Z,27.60
2019-04-16T15:16:22.480Z,27.60
2019-04-16T15:19:08.809Z,27.00
2019-04-16T15:21:55.179Z,26.80
2019-04-16T15:24:25.084Z,26.70
2019-04-16T15:27:00.731Z,27.00
2019-04-16T15:29:30.709Z,27.00
2019-04-16T15:32:04.108Z,27.40
2019-04-16T15:34:34.995Z,27.60
2019-04-16T15:37:07.902Z,27.30
2019-04-16T15:39:37.780Z,27.60
2019-04-16T15:42:17.498Z,27.50
2019-04-16T15:44:45.583Z,27.20
2019-04-16T15:47:18.397Z,27.20
2019-04-16T15:49:49.792Z,27.20
2019-04-16T15:52:20.015Z,27.10
2019-04-16T15:54:52.735Z,27.10
2019-04-16T15:57:34.876Z,27.20
2019-04-16T16:00:22.055Z,27.30
2019-04-16T16:03:04.262Z,27.60
2019-04-16T16:05:43.240Z,27.90
2019-04-16T16:08:13.116Z,27.90
2019-04-16T16:10:45.286Z,28.10
2019-04-16T16:13:14.751Z,28.00
2019-04-16T16:15:43.069Z,27.90
2019-04-16T16:18:11.389Z,27.80
2019-04-16T16:20:39.813Z,28.00
2019-04-16T16:23:08.262Z,28.20
2019-04-16T16:25:41.172Z,28.10
2019-04-16T16:28:06.464Z,28.40
2019-04-16T16:30:34.702Z,29.00
2019-04-16T16:33:03.246Z,28.60
2019-04-16T16:35:34.865Z,28.60
2019-04-16T16:38:01.852Z,28.70
2019-04-16T16:40:30.642Z,28.80
2019-04-16T16:42:59.349Z,28.80
2019-04-16T16:45:46.172Z,28.80
2019-04-16T16:48:14.937Z,29.00
2019-04-16T16:50:44.093Z,29.10
2019-04-16T16:53:31.528Z,29.60
2019-04-16T16:56:01.536Z,29.10
2019-04-16T16:58:37.203Z,29.40
2019-04-16T17:01:14.010Z,29.60
2019-04-16T17:03:47.079Z,29.60
2019-04-16T17:06:16.978Z,29.70
2019-04-16T17:08:45.530Z,29.80
2019-04-16T17:11:18.157Z,29.80
2019-04-16T17:13:46.634Z,29.90
2019-04-16T17:16:15.083Z,30.00
2019-04-16T17:18:45.436Z,30.20
2019-04-16T17:21:13.318Z,30.30
2019-04-16T17:23:41.738Z,30.40
2019-04-16T17:26:09.979Z,30.50
2019-04-16T17:28:40.406Z,30.50
2019-04-16T17:31:09.013Z,30.90
2019-04-16T17:33:37.378Z,31.30
2019-04-16T17:36:06.459Z,31.80
2019-04-16T17:38:36.709Z,32.20
2019-04-16T17:41:06.978Z,32.70
2019-04-16T17:43:59.898Z,33.40
2019-04-16T17:46:34.145Z,33.80
2019-04-16T17:49:04.394Z,33.90
2019-04-16T17:51:43.395Z,34.20
2019-04-16T17:54:30.012Z,34.40
2019-04-16T17:57:17.432Z,34.70
2019-04-16T17:59:50.022Z,34.90
2019-04-16T18:02:28.074Z,35.20
2019-04-16T18:04:57.649Z,35.70
2019-04-16T18:07:42.721Z,35.20
2019-04-16T18:10:33.726Z,36.10
2019-04-16T18:13:06.878Z,36.00
2019-04-16T18:15:43.415Z,36.10
2019-04-16T18:18:16.823Z,36.30
2019-04-16T18:20:56.740Z,36.50
2019-04-16T18:23:16.693Z,36.90
2019-04-16T18:26:02.759Z,37.00
2019-04-16T18:28:32.659Z,37.00
2019-04-16T18:31:11.774Z,37.20
2019-04-16T18:33:44.891Z,37.60
2019-04-16T18:36:23.996Z,37.90
2019-04-16T18:38:56.260Z,38.20
2019-04-16T18:41:41.872Z,38.60
2019-04-16T18:44:14.490Z,38.70
2019-04-16T18:46:50.954Z,38.70
2019-04-16T18:49:23.666Z,39.10
2019-04-16T18:51:52.042Z,39.40
2019-04-16T18:54:20.621Z,39.50
2019-04-16T18:56:48.900Z,40.00
2019-04-16T18:59:19.231Z,40.20
2019-04-16T19:01:55.386Z,40.30
2019-04-16T19:04:23.667Z,40.50
2019-04-16T19:06:52.365Z,40.60
2019-04-16T19:09:21.160Z,40.90
2019-04-16T19:11:49.483Z,41.20
2019-04-16T19:14:17.713Z,41.20
2019-04-16T19:16:45.965Z,41.40
2019-04-16T19:19:14.198Z,41.80
2019-04-16T19:21:42.850Z,41.70
2019-04-16T19:24:11.343Z,41.80
2019-04-16T19:26:39.574Z,41.90
2019-04-16T19:29:13.243Z,42.90
2019-04-16T19:31:37.802Z,42.20
2019-04-16T19:34:10.233Z,42.40
2019-04-16T19:36:36.005Z,43.20
2019-04-16T19:39:06.952Z,42.50
2019-04-16T19:41:35.810Z,42.70
2019-04-16T19:44:07.245Z,42.70
2019-04-16T19:46:34.237Z,42.80
2019-04-16T19:49:02.493Z,43.10
2019-04-16T19:51:30.777Z,43.20
2019-04-16T19:53:59.173Z,43.30
2019-04-16T19:56:27.468Z,43.40
2019-04-16T19:58:55.734Z,43.50
2019-04-16T20:01:23.987Z,43.80
2019-04-16T20:03:52.226Z,43.80
2019-04-16T20:06:25.291Z,43.90
2019-04-16T20:08:50.484Z,43.90
2019-04-16T20:11:21.354Z,44.10
2019-04-16T20:13:48.677Z,44.10
2019-04-16T20:16:17.008Z,44.40
2019-04-16T20:18:51.326Z,44.50
2019-04-16T20:21:15.201Z,44.60
2019-04-16T20:23:43.467Z,44.50
2019-04-16T20:26:11.683Z,44.70
2019-04-16T20:28:39.921Z,44.90
2019-04-16T20:31:08.174Z,44.90
2019-04-16T20:33:36.406Z,45.00
2019-04-16T20:36:04.761Z,45.10
2019-04-16T20:38:33.009Z,45.20
2019-04-16T20:41:01.237Z,45.20
2019-04-16T20:43:29.539Z,45.40
2019-04-16T20:45:57.785Z,45.40
2019-04-16T20:48:26.023Z,45.50
2019-04-16T20:50:58.812Z,45.50
2019-04-16T20:53:24.394Z,45.40
2019-04-16T20:55:52.619Z,45.60
2019-04-16T20:58:20.864Z,45.80
2019-04-16T21:00:50.788Z,45.90
2019-04-16T21:03:22.160Z,46.10
2019-04-16T21:05:57.852Z,45.90
2019-04-16T21:08:24.441Z,46.00
2019-04-16T21:10:49.082Z,46.00
2019-04-16T21:13:17.313Z,46.00
2019-04-16T21:15:45.575Z,46.10
2019-04-16T21:18:13.806Z,46.30
2019-04-16T21:20:42.037Z,46.30
2019-04-16T21:23:10.285Z,46.40
2019-04-16T21:25:38.541Z,46.60
2019-04-16T21:28:08.411Z,46.60
2019-04-16T21:30:36.936Z,46.80
2019-04-16T21:33:06.906Z,46.90
2019-04-16T21:35:36.861Z,46.90
2019-04-16T21:38:23.034Z,46.90
2019-04-16T21:40:52.840Z,47.10
2019-04-16T21:43:21.227Z,47.30
2019-04-16T21:45:49.481Z,47.20
2019-04-16T21:48:17.717Z,47.30
2019-04-16T21:50:47.567Z,47.30
2019-04-16T21:53:15.922Z,47.40
2019-04-16T21:55:44.162Z,47.30
2019-04-16T21:58:14.582Z,47.30
2019-04-16T22:00:53.556Z,47.20
2019-04-16T22:03:29.861Z,46.80
2019-04-16T22:05:58.102Z,46.80
2019-04-16T22:08:29.410Z,46.60
2019-04-16T22:10:56.311Z,46.40
2019-04-16T22:13:24.548Z,46.80
2019-04-16T22:15:53.689Z,46.80
2019-04-16T22:18:22.744Z,46.50
2019-04-16T22:20:51.865Z,46.50
2019-04-16T22:23:20.112Z,46.70
2019-04-16T22:25:48.346Z,47.00
2019-04-16T22:28:16.598Z,47.50
2019-04-16T22:30:44.842Z,47.70
2019-04-16T22:33:13.083Z,48.00
2019-04-16T22:35:41.330Z,48.10
2019-04-16T22:38:13.259Z,48.30
2019-04-16T22:40:43.914Z,48.60
2019-04-16T22:43:29.423Z,48.70
2019-04-16T22:45:59.413Z,48.70
2019-04-16T22:48:27.726Z,48.80
2019-04-16T22:50:55.986Z,49.10
2019-04-16T22:53:24.214Z,49.10
2019-04-16T22:55:56.400Z,49.30
2019-04-16T22:58:24.071Z,49.60
2019-04-16T23:00:55.846Z,49.60
2019-04-16T23:03:24.079Z,49.70
2019-04-16T23:05:52.448Z,49.80
2019-04-16T23:08:20.673Z,49.80
2019-04-16T23:10:50.606Z,49.90
2019-04-16T23:13:18.914Z,50.20
2019-04-16T23:15:47.146Z,50.30
2019-04-16T23:18:17.663Z,50.30
2019-04-16T23:20:45.370Z,50.40
2019-04-16T23:23:17.906Z,50.50
2019-04-16T23:25:43.572Z,50.60
2019-04-16T23:28:12.129Z,50.50
2019-04-16T23:30:42.477Z,50.60
2019-04-16T23:33:10.708Z,50.50
2019-04-16T23:35:43.375Z,50.60
2019-04-16T23:38:08.931Z,50.60
2019-04-16T23:40:37.173Z,50.60
2019-04-16T23:43:10.321Z,50.60
2019-04-16T23:45:40.238Z,50.50
2019-04-16T23:48:14.658Z,50.30
2019-04-16T23:50:45.306Z,50.00
2019-04-16T23:53:16.321Z,50.00
2019-04-16T23:55:52.357Z,50.00
2019-04-16T23:58:38.657Z,49.90
